sensor_id;sensor_type;location;lat;lon;timestamp;pressure;altitude;pressure_sealevel;temperature;humidity
13434;BME280;6789;47.678;9.158;2023-04-19T00:02:51;97091.47;;;9.84;99.96
13434;BME280;6789;47.678;9.158;2023-04-19T00:07:43;97088.84;;;9.84;99.96
13434;BME280;6789;47.678;9.158;2023-04-19T00:12:34;97080.22;;;9.77;99.77
13434;BME280;6789;47.678;9.158;2023-04-19T00:17:26;97076.97;;;9.88;99.02
13434;BME280;6789;47.678;9.158;2023-04-19T00:22:18;97074.59;;;9.80;99.23
13434;BME280;6789;47.678;9.158;2023-04-19T00:27:10;97074.41;;;9.75;99.21
13434;BME280;6789;47.678;9.158;2023-04-19T00:32:01;97075.97;;;9.82;99.20
13434;BME280;6789;47.678;9.158;2023-04-19T00:37:00;97059.94;;;9.66;100.00
13434;BME280;6789;47.678;9.158;2023-04-19T00:41:51;97069.41;;;9.67;100.00
13434;BME280;6789;47.678;9.158;2023-04-19T00:46:44;97057.94;;;9.68;100.00
13434;BME280;6789;47.678;9.158;2023-04-19T00:51:36;97066.19;;;9.71;100.00
13434;BME280;6789;47.678;9.158;2023-04-19T00:56:29;97064.50;;;9.83;99.28
13434;BME280;6789;47.678;9.158;2023-04-19T01:01:21;97056.84;;;9.82;99.22
13434;BME280;6789;47.678;9.158;2023-04-19T01:06:14;97064.09;;;9.80;99.80
13434;BME280;6789;47.678;9.158;2023-04-19T01:11:06;97061.09;;;9.83;99.08
13434;BME280;6789;47.678;9.158;2023-04-19T01:15:59;97045.94;;;9.85;99.19
13434;BME280;6789;47.678;9.158;2023-04-19T01:20:51;97044.13;;;9.85;98.70
13434;BME280;6789;47.678;9.158;2023-04-19T01:25:43;97046.19;;;9.77;99.47
13434;BME280;6789;47.678;9.158;2023-04-19T01:30:35;97036.84;;;9.87;98.68
13434;BME280;6789;47.678;9.158;2023-04-19T01:35:27;97027.59;;;9.85;99.35
13434;BME280;6789;47.678;9.158;2023-04-19T01:40:19;97033.84;;;9.84;98.51
13434;BME280;6789;47.678;9.158;2023-04-19T01:45:11;97019.06;;;9.95;98.25
13434;BME280;6789;47.678;9.158;2023-04-19T01:50:03;97026.97;;;9.89;98.31
13434;BME280;6789;47.678;9.158;2023-04-19T01:54:54;97013.03;;;9.95;97.96
13434;BME280;6789;47.678;9.158;2023-04-19T01:59:46;97010.41;;;9.95;97.80
13434;BME280;6789;47.678;9.158;2023-04-19T02:04:38;97015.03;;;9.99;97.42
13434;BME280;6789;47.678;9.158;2023-04-19T02:09:30;97014.25;;;9.93;97.62
13434;BME280;6789;47.678;9.158;2023-04-19T02:14:21;97019.06;;;9.95;97.65
13434;BME280;6789;47.678;9.158;2023-04-19T02:19:13;97016.44;;;10.02;97.40
13434;BME280;6789;47.678;9.158;2023-04-19T02:24:05;97010.81;;;9.98;97.70
13434;BME280;6789;47.678;9.158;2023-04-19T02:28:57;97014.44;;;9.97;97.24
13434;BME280;6789;47.678;9.158;2023-04-19T02:33:49;97011.19;;;9.95;97.40
13434;BME280;6789;47.678;9.158;2023-04-19T02:38:40;97003.97;;;9.97;97.34
13434;BME280;6789;47.678;9.158;2023-04-19T02:43:32;97005.78;;;9.97;96.96
13434;BME280;6789;47.678;9.158;2023-04-19T02:48:24;97006.19;;;9.94;97.39
13434;BME280;6789;47.678;9.158;2023-04-19T02:53:15;96992.28;;;9.93;97.39
13434;BME280;6789;47.678;9.158;2023-04-19T02:58:21;96999.94;;;9.95;97.21
13434;BME280;6789;47.678;9.158;2023-04-19T03:03:13;97000.16;;;9.93;97.08
13434;BME280;6789;47.678;9.158;2023-04-19T03:08:05;96996.78;;;10.11;95.66
13434;BME280;6789;47.678;9.158;2023-04-19T03:12:56;96997.09;;;10.03;96.14
13434;BME280;6789;47.678;9.158;2023-04-19T03:17:48;96988.66;;;9.94;96.05
13434;BME280;6789;47.678;9.158;2023-04-19T03:22:40;96998.31;;;10.00;95.72
13434;BME280;6789;47.678;9.158;2023-04-19T03:27:34;96994.09;;;9.93;95.43
13434;BME280;6789;47.678;9.158;2023-04-19T03:32:27;96995.09;;;9.98;94.82
13434;BME280;6789;47.678;9.158;2023-04-19T03:37:18;96985.44;;;9.93;93.98
13434;BME280;6789;47.678;9.158;2023-04-19T03:42:10;96986.91;;;9.89;93.82
13434;BME280;6789;47.678;9.158;2023-04-19T03:47:02;96979.03;;;9.89;93.72
13434;BME280;6789;47.678;9.158;2023-04-19T03:51:54;96979.41;;;9.92;92.90
13434;BME280;6789;47.678;9.158;2023-04-19T03:56:46;96973.34;;;9.92;93.57
13434;BME280;6789;47.678;9.158;2023-04-19T04:01:38;96972.34;;;9.93;93.06
13434;BME280;6789;47.678;9.158;2023-04-19T04:06:32;96974.00;;;9.87;94.11
13434;BME280;6789;47.678;9.158;2023-04-19T04:11:24;96974.38;;;9.97;93.81
13434;BME280;6789;47.678;9.158;2023-04-19T04:16:16;96967.66;;;10.01;93.93
13434;BME280;6789;47.678;9.158;2023-04-19T04:21:08;96981.81;;;9.93;94.35
13434;BME280;6789;47.678;9.158;2023-04-19T04:26:00;96982.03;;;9.92;94.69
13434;BME280;6789;47.678;9.158;2023-04-19T04:30:56;96984.16;;;10.01;94.69
13434;BME280;6789;47.678;9.158;2023-04-19T04:35:48;96985.59;;;10.04;94.94
13434;BME280;6789;47.678;9.158;2023-04-19T04:40:40;96993.06;;;10.00;95.10
13434;BME280;6789;47.678;9.158;2023-04-19T04:45:33;96992.28;;;9.93;95.08
13434;BME280;6789;47.678;9.158;2023-04-19T04:50:25;96993.16;;;9.88;95.97
13434;BME280;6789;47.678;9.158;2023-04-19T04:55:17;96991.84;;;9.96;95.52
13434;BME280;6789;47.678;9.158;2023-04-19T05:00:10;96993.94;;;9.88;96.35
13434;BME280;6789;47.678;9.158;2023-04-19T05:05:03;96988.09;;;9.86;96.34
13434;BME280;6789;47.678;9.158;2023-04-19T05:09:55;96991.06;;;9.96;95.70
13434;BME280;6789;47.678;9.158;2023-04-19T05:14:46;96991.63;;;10.04;95.12
13434;BME280;6789;47.678;9.158;2023-04-19T05:19:38;96994.66;;;10.01;95.01
13434;BME280;6789;47.678;9.158;2023-04-19T05:24:30;96999.13;;;9.94;94.85
13434;BME280;6789;47.678;9.158;2023-04-19T05:29:21;96992.28;;;9.93;94.18
13434;BME280;6789;47.678;9.158;2023-04-19T05:34:13;96997.09;;;9.96;93.74
13434;BME280;6789;47.678;9.158;2023-04-19T05:39:05;97001.69;;;10.07;92.96
13434;BME280;6789;47.678;9.158;2023-04-19T05:43:57;96998.03;;;10.08;93.10
13434;BME280;6789;47.678;9.158;2023-04-19T05:48:48;96992.22;;;10.06;93.16
13434;BME280;6789;47.678;9.158;2023-04-19T05:53:40;97000.66;;;10.08;93.38
13434;BME280;6789;47.678;9.158;2023-04-19T05:58:32;97008.56;;;10.02;93.33
13434;BME280;6789;47.678;9.158;2023-04-19T06:03:24;97000.13;;;10.00;93.57
13434;BME280;6789;47.678;9.158;2023-04-19T06:08:31;97000.66;;;10.08;92.87
13434;BME280;6789;47.678;9.158;2023-04-19T06:13:37;97011.31;;;10.13;92.91
13434;BME280;6789;47.678;9.158;2023-04-19T06:18:42;97001.03;;;10.12;92.85
13434;BME280;6789;47.678;9.158;2023-04-19T06:23:35;97011.88;;;10.15;92.45
13434;BME280;6789;47.678;9.158;2023-04-19T06:28:28;97015.69;;;10.19;92.73
13434;BME280;6789;47.678;9.158;2023-04-19T06:33:20;97009.41;;;10.20;92.67
13434;BME280;6789;47.678;9.158;2023-04-19T06:38:12;97018.31;;;10.19;92.50
13434;BME280;6789;47.678;9.158;2023-04-19T06:43:04;97016.59;;;10.31;92.55
13434;BME280;6789;47.678;9.158;2023-04-19T06:47:57;97022.94;;;10.42;91.49
13434;BME280;6789;47.678;9.158;2023-04-19T06:53:03;97026.22;;;10.37;92.47
13434;BME280;6789;47.678;9.158;2023-04-19T06:58:15;97027.81;;;10.38;92.17
13434;BME280;6789;47.678;9.158;2023-04-19T07:03:35;97030.63;;;10.37;92.24
13434;BME280;6789;47.678;9.158;2023-04-19T07:08:28;97035.53;;;10.51;92.00
13434;BME280;6789;47.678;9.158;2023-04-19T07:13:39;97029.38;;;10.46;92.15
13434;BME280;6789;47.678;9.158;2023-04-19T07:18:39;97025.81;;;10.58;92.01
13434;BME280;6789;47.678;9.158;2023-04-19T07:23:31;97021.94;;;10.61;91.82
13434;BME280;6789;47.678;9.158;2023-04-19T07:28:38;97024.50;;;10.67;91.13
13434;BME280;6789;47.678;9.158;2023-04-19T07:33:45;97022.34;;;10.82;90.93
13434;BME280;6789;47.678;9.158;2023-04-19T07:38:51;97019.91;;;10.98;89.33
13434;BME280;6789;47.678;9.158;2023-04-19T07:43:43;97021.47;;;10.88;90.02
13434;BME280;6789;47.678;9.158;2023-04-19T07:48:38;97020.88;;;10.86;89.83
13434;BME280;6789;47.678;9.158;2023-04-19T07:53:33;97020.16;;;10.79;90.41
13434;BME280;6789;47.678;9.158;2023-04-19T07:58:25;97021.16;;;10.96;89.72
13434;BME280;6789;47.678;9.158;2023-04-19T08:03:27;97020.75;;;10.99;89.46
13434;BME280;6789;47.678;9.158;2023-04-19T08:08:20;97024.22;;;11.11;89.03
13434;BME280;6789;47.678;9.158;2023-04-19T08:13:13;97016.38;;;10.93;89.52
13434;BME280;6789;47.678;9.158;2023-04-19T08:18:07;97020.28;;;11.02;90.02
13434;BME280;6789;47.678;9.158;2023-04-19T08:23:00;97023.06;;;11.07;89.47
13434;BME280;6789;47.678;9.158;2023-04-19T08:28:05;97017.81;;;11.07;89.06
13434;BME280;6789;47.678;9.158;2023-04-19T08:33:12;97016.47;;;11.34;88.02
13434;BME280;6789;47.678;9.158;2023-04-19T08:38:04;97012.16;;;11.39;87.87
13434;BME280;6789;47.678;9.158;2023-04-19T08:42:57;97012.69;;;11.30;87.31
13434;BME280;6789;47.678;9.158;2023-04-19T08:47:53;97001.56;;;11.45;86.93
13434;BME280;6789;47.678;9.158;2023-04-19T08:52:53;97007.84;;;11.62;85.13
13434;BME280;6789;47.678;9.158;2023-04-19T08:57:56;97004.56;;;11.78;85.43
13434;BME280;6789;47.678;9.158;2023-04-19T09:03:06;97009.03;;;11.89;84.63
13434;BME280;6789;47.678;9.158;2023-04-19T09:08:23;96997.81;;;11.82;84.30
13434;BME280;6789;47.678;9.158;2023-04-19T09:13:17;96996.38;;;11.98;83.96
13434;BME280;6789;47.678;9.158;2023-04-19T09:18:23;96989.66;;;12.02;84.22
13434;BME280;6789;47.678;9.158;2023-04-19T09:23:26;96991.03;;;12.04;83.35
13434;BME280;6789;47.678;9.158;2023-04-19T09:28:23;96983.25;;;12.09;82.43
13434;BME280;6789;47.678;9.158;2023-04-19T09:33:36;96983.03;;;12.10;82.42
13434;BME280;6789;47.678;9.158;2023-04-19T09:38:48;96971.94;;;12.09;82.16
13434;BME280;6789;47.678;9.158;2023-04-19T09:43:41;96975.53;;;11.85;83.23
13434;BME280;6789;47.678;9.158;2023-04-19T09:48:37;96967.84;;;11.60;83.75
13434;BME280;6789;47.678;9.158;2023-04-19T09:53:39;96971.94;;;11.56;84.03
13434;BME280;6789;47.678;9.158;2023-04-19T09:58:31;96960.09;;;11.65;83.89
13434;BME280;6789;47.678;9.158;2023-04-19T10:03:41;96962.16;;;11.75;83.67
13434;BME280;6789;47.678;9.158;2023-04-19T10:08:35;96955.38;;;12.08;82.83
13434;BME280;6789;47.678;9.158;2023-04-19T10:13:28;96953.75;;;12.41;80.71
13434;BME280;6789;47.678;9.158;2023-04-19T10:18:24;96951.94;;;12.42;80.18
13434;BME280;6789;47.678;9.158;2023-04-19T10:23:34;96949.09;;;12.09;82.48
13434;BME280;6789;47.678;9.158;2023-04-19T10:28:42;96947.53;;;11.79;85.31
13434;BME280;6789;47.678;9.158;2023-04-19T10:33:36;96943.91;;;11.68;86.31
13434;BME280;6789;47.678;9.158;2023-04-19T10:38:47;96949.47;;;11.60;86.21
13434;BME280;6789;47.678;9.158;2023-04-19T10:44:10;96938.38;;;11.58;87.23
13434;BME280;6789;47.678;9.158;2023-04-19T10:49:14;96927.69;;;11.83;85.55
13434;BME280;6789;47.678;9.158;2023-04-19T10:59:22;96918.22;;;12.05;84.90
13434;BME280;6789;47.678;9.158;2023-04-19T11:09:43;96903.25;;;12.39;82.10
13434;BME280;6789;47.678;9.158;2023-04-19T11:14:55;96896.34;;;12.50;81.92
13434;BME280;6789;47.678;9.158;2023-04-19T11:20:05;96895.28;;;12.62;81.97
13434;BME280;6789;47.678;9.158;2023-04-19T11:30:21;96883.84;;;12.57;80.46
13434;BME280;6789;47.678;9.158;2023-04-19T11:35:30;96882.22;;;12.67;81.20
13434;BME280;6789;47.678;9.158;2023-04-19T11:40:36;96876.59;;;12.86;80.38
13434;BME280;6789;47.678;9.158;2023-04-19T11:45:42;96878.50;;;13.02;80.14
13434;BME280;6789;47.678;9.158;2023-04-19T11:50:44;96865.84;;;12.77;80.70
13434;BME280;6789;47.678;9.158;2023-04-19T11:56:11;96859.34;;;13.07;78.59
13434;BME280;6789;47.678;9.158;2023-04-19T12:01:21;96855.53;;;13.14;78.14
13434;BME280;6789;47.678;9.158;2023-04-19T12:06:24;96855.28;;;13.16;78.09
13434;BME280;6789;47.678;9.158;2023-04-19T12:11:45;96851.19;;;13.36;76.20
13434;BME280;6789;47.678;9.158;2023-04-19T12:17:12;96851.91;;;13.64;74.71
13434;BME280;6789;47.678;9.158;2023-04-19T12:22:20;96847.19;;;13.50;74.64
13434;BME280;6789;47.678;9.158;2023-04-19T12:27:17;96839.69;;;13.42;74.15
13434;BME280;6789;47.678;9.158;2023-04-19T12:32:11;96838.91;;;13.58;74.01
13434;BME280;6789;47.678;9.158;2023-04-19T12:37:19;96844.16;;;13.58;73.67
13434;BME280;6789;47.678;9.158;2023-04-19T12:42:12;96837.47;;;13.51;73.83
13434;BME280;6789;47.678;9.158;2023-04-19T12:47:18;96829.16;;;13.42;73.94
13434;BME280;6789;47.678;9.158;2023-04-19T12:52:23;96820.06;;;13.50;74.75
13434;BME280;6789;47.678;9.158;2023-04-19T12:57:30;96810.81;;;13.47;75.11
13434;BME280;6789;47.678;9.158;2023-04-19T13:02:38;96808.22;;;13.36;73.80
13434;BME280;6789;47.678;9.158;2023-04-19T13:07:44;96807.91;;;13.32;72.30
13434;BME280;6789;47.678;9.158;2023-04-19T13:12:51;96795.13;;;13.41;73.55
13434;BME280;6789;47.678;9.158;2023-04-19T13:17:58;96794.03;;;13.37;72.60
13434;BME280;6789;47.678;9.158;2023-04-19T13:23:18;96785.63;;;13.40;71.51
13434;BME280;6789;47.678;9.158;2023-04-19T13:28:24;96769.31;;;12.93;72.82
13434;BME280;6789;47.678;9.158;2023-04-19T13:33:22;96767.41;;;13.05;73.70
13434;BME280;6789;47.678;9.158;2023-04-19T13:38:44;96764.00;;;13.21;72.54
13434;BME280;6789;47.678;9.158;2023-04-19T13:43:36;96759.53;;;13.54;71.80
13434;BME280;6789;47.678;9.158;2023-04-19T13:48:28;96745.50;;;13.70;70.09
13434;BME280;6789;47.678;9.158;2023-04-19T13:53:34;96744.81;;;13.58;71.03
13434;BME280;6789;47.678;9.158;2023-04-19T13:58:40;96736.59;;;13.55;71.24
13434;BME280;6789;47.678;9.158;2023-04-19T14:03:45;96719.13;;;13.49;71.85
13434;BME280;6789;47.678;9.158;2023-04-19T14:08:42;96719.63;;;13.46;72.13
13434;BME280;6789;47.678;9.158;2023-04-19T14:13:34;96712.31;;;13.15;73.25
13434;BME280;6789;47.678;9.158;2023-04-19T14:18:40;96708.69;;;13.38;72.35
13434;BME280;6789;47.678;9.158;2023-04-19T14:23:34;96708.13;;;13.52;72.62
13434;BME280;6789;47.678;9.158;2023-04-19T14:28:40;96692.00;;;13.70;69.71
13434;BME280;6789;47.678;9.158;2023-04-19T14:39:25;96685.91;;;14.07;69.16
13434;BME280;6789;47.678;9.158;2023-04-19T14:44:31;96682.84;;;14.15;68.63
13434;BME280;6789;47.678;9.158;2023-04-19T14:49:37;96680.94;;;14.32;67.90
13434;BME280;6789;47.678;9.158;2023-04-19T14:54:46;96683.63;;;14.37;66.78
13434;BME280;6789;47.678;9.158;2023-04-19T14:59:42;96679.13;;;14.37;66.37
13434;BME280;6789;47.678;9.158;2023-04-19T15:04:34;96674.09;;;14.62;67.45
13434;BME280;6789;47.678;9.158;2023-04-19T15:09:31;96672.56;;;14.98;66.26
13434;BME280;6789;47.678;9.158;2023-04-19T15:14:38;96663.91;;;15.07;65.70
13434;BME280;6789;47.678;9.158;2023-04-19T15:19:33;96669.06;;;14.92;65.18
13434;BME280;6789;47.678;9.158;2023-04-19T15:24:25;96664.94;;;15.06;66.39
13434;BME280;6789;47.678;9.158;2023-04-19T15:29:20;96666.44;;;15.23;66.28
13434;BME280;6789;47.678;9.158;2023-04-19T15:34:13;96668.50;;;15.21;65.97
13434;BME280;6789;47.678;9.158;2023-04-19T15:39:19;96676.53;;;15.00;65.76
13434;BME280;6789;47.678;9.158;2023-04-19T15:44:14;96683.34;;;13.91;69.37
13434;BME280;6789;47.678;9.158;2023-04-19T15:49:06;96698.34;;;12.54;76.90
13434;BME280;6789;47.678;9.158;2023-04-19T15:53:57;96697.19;;;12.06;82.70
13434;BME280;6789;47.678;9.158;2023-04-19T15:58:50;96695.47;;;11.49;87.29
13434;BME280;6789;47.678;9.158;2023-04-19T16:03:43;96696.53;;;11.14;92.79
13434;BME280;6789;47.678;9.158;2023-04-19T16:08:35;96704.59;;;10.78;95.49
13434;BME280;6789;47.678;9.158;2023-04-19T16:13:28;96713.56;;;10.71;97.20
13434;BME280;6789;47.678;9.158;2023-04-19T16:18:33;96703.81;;;10.49;100.00
13434;BME280;6789;47.678;9.158;2023-04-19T16:23:25;96691.16;;;10.46;100.00
13434;BME280;6789;47.678;9.158;2023-04-19T16:28:25;96694.16;;;10.20;100.00
13434;BME280;6789;47.678;9.158;2023-04-19T16:33:17;96703.13;;;10.12;100.00
13434;BME280;6789;47.678;9.158;2023-04-19T16:38:09;96693.44;;;10.13;100.00
13434;BME280;6789;47.678;9.158;2023-04-19T16:43:01;96691.63;;;9.95;100.00
13434;BME280;6789;47.678;9.158;2023-04-19T16:47:52;96680.75;;;9.81;100.00
13434;BME280;6789;47.678;9.158;2023-04-19T16:52:44;96680.13;;;9.67;100.00
13434;BME280;6789;47.678;9.158;2023-04-19T16:57:36;96670.16;;;9.58;100.00
13434;BME280;6789;47.678;9.158;2023-04-19T17:02:28;96669.28;;;9.64;100.00
13434;BME280;6789;47.678;9.158;2023-04-19T17:07:20;96684.31;;;9.68;100.00
13434;BME280;6789;47.678;9.158;2023-04-19T17:12:13;96690.78;;;9.30;100.00
13434;BME280;6789;47.678;9.158;2023-04-19T17:17:05;96689.38;;;9.10;100.00
13434;BME280;6789;47.678;9.158;2023-04-19T17:21:57;96693.69;;;8.80;100.00
13434;BME280;6789;47.678;9.158;2023-04-19T17:26:55;96691.47;;;8.77;100.00
13434;BME280;6789;47.678;9.158;2023-04-19T17:31:50;96701.03;;;8.65;100.00
13434;BME280;6789;47.678;9.158;2023-04-19T17:36:41;96702.25;;;8.62;100.00
13434;BME280;6789;47.678;9.158;2023-04-19T17:41:33;96714.25;;;8.46;100.00
13434;BME280;6789;47.678;9.158;2023-04-19T17:46:25;96724.88;;;8.44;100.00
13434;BME280;6789;47.678;9.158;2023-04-19T17:51:17;96738.41;;;8.35;100.00
13434;BME280;6789;47.678;9.158;2023-04-19T17:56:08;96740.63;;;8.31;100.00
13434;BME280;6789;47.678;9.158;2023-04-19T18:01:00;96735.72;;;8.04;100.00
13434;BME280;6789;47.678;9.158;2023-04-19T18:05:54;96745.38;;;8.03;100.00
13434;BME280;6789;47.678;9.158;2023-04-19T18:10:47;96750.44;;;7.98;100.00
13434;BME280;6789;47.678;9.158;2023-04-19T18:15:39;96756.69;;;7.84;100.00
13434;BME280;6789;47.678;9.158;2023-04-19T18:20:31;96756.91;;;7.83;100.00
13434;BME280;6789;47.678;9.158;2023-04-19T18:25:27;96765.59;;;7.64;100.00
13434;BME280;6789;47.678;9.158;2023-04-19T18:30:20;96773.81;;;7.61;100.00
13434;BME280;6789;47.678;9.158;2023-04-19T18:35:12;96770.22;;;7.62;100.00
13434;BME280;6789;47.678;9.158;2023-04-19T18:40:05;96774.66;;;7.62;100.00
13434;BME280;6789;47.678;9.158;2023-04-19T18:44:59;96785.91;;;7.49;100.00
13434;BME280;6789;47.678;9.158;2023-04-19T18:49:51;96774.66;;;7.42;100.00
13434;BME280;6789;47.678;9.158;2023-04-19T18:54:56;96782.28;;;7.50;100.00
13434;BME280;6789;47.678;9.158;2023-04-19T18:59:49;96784.72;;;7.45;100.00
13434;BME280;6789;47.678;9.158;2023-04-19T19:04:41;96781.91;;;7.40;100.00
13434;BME280;6789;47.678;9.158;2023-04-19T19:09:48;96778.28;;;7.41;100.00
13434;BME280;6789;47.678;9.158;2023-04-19T19:14:54;96793.16;;;7.34;100.00
13434;BME280;6789;47.678;9.158;2023-04-19T19:19:46;96791.13;;;7.36;100.00
13434;BME280;6789;47.678;9.158;2023-04-19T19:24:40;96783.91;;;7.38;100.00
13434;BME280;6789;47.678;9.158;2023-04-19T19:29:33;96789.94;;;7.32;100.00
13434;BME280;6789;47.678;9.158;2023-04-19T19:34:39;96798.38;;;7.28;100.00
13434;BME280;6789;47.678;9.158;2023-04-19T19:39:53;96807.59;;;7.17;100.00
13434;BME280;6789;47.678;9.158;2023-04-19T19:45:01;96797.97;;;7.18;100.00
13434;BME280;6789;47.678;9.158;2023-04-19T19:50:07;96809.19;;;7.06;100.00
13434;BME280;6789;47.678;9.158;2023-04-19T19:55:15;96803.97;;;6.93;100.00
13434;BME280;6789;47.678;9.158;2023-04-19T20:00:09;96808.59;;;6.84;100.00
13434;BME280;6789;47.678;9.158;2023-04-19T20:05:29;96807.59;;;6.79;100.00
13434;BME280;6789;47.678;9.158;2023-04-19T20:10:22;96796.75;;;6.75;100.00
13434;BME280;6789;47.678;9.158;2023-04-19T20:15:28;96798.56;;;6.75;100.00
13434;BME280;6789;47.678;9.158;2023-04-19T20:20:36;96806.16;;;6.70;100.00
13434;BME280;6789;47.678;9.158;2023-04-19T20:25:52;96803.94;;;6.54;100.00
13434;BME280;6789;47.678;9.158;2023-04-19T20:30:58;96785.88;;;6.52;100.00
13434;BME280;6789;47.678;9.158;2023-04-19T20:36:03;96785.47;;;6.42;100.00
13434;BME280;6789;47.678;9.158;2023-04-19T20:41:11;96766.66;;;6.47;100.00
13434;BME280;6789;47.678;9.158;2023-04-19T20:46:04;96762.66;;;6.51;100.00
13434;BME280;6789;47.678;9.158;2023-04-19T20:50:58;96759.44;;;6.49;100.00
13434;BME280;6789;47.678;9.158;2023-04-19T20:55:54;96753.44;;;6.55;100.00
13434;BME280;6789;47.678;9.158;2023-04-19T21:00:47;96765.03;;;6.39;100.00
13434;BME280;6789;47.678;9.158;2023-04-19T21:05:40;96780.81;;;6.19;100.00
13434;BME280;6789;47.678;9.158;2023-04-19T21:10:34;96778.38;;;6.17;100.00
13434;BME280;6789;47.678;9.158;2023-04-19T21:15:26;96770.97;;;6.14;100.00
13434;BME280;6789;47.678;9.158;2023-04-19T21:20:18;96772.53;;;6.09;100.00
13434;BME280;6789;47.678;9.158;2023-04-19T21:25:12;96769.78;;;6.10;100.00
13434;BME280;6789;47.678;9.158;2023-04-19T21:30:06;96770.34;;;6.12;100.00
13434;BME280;6789;47.678;9.158;2023-04-19T21:35:00;96754.56;;;6.14;100.00
13434;BME280;6789;47.678;9.158;2023-04-19T21:39:56;96758.56;;;6.16;100.00
13434;BME280;6789;47.678;9.158;2023-04-19T21:44:52;96752.97;;;6.19;100.00
13434;BME280;6789;47.678;9.158;2023-04-19T21:49:52;96740.56;;;6.21;100.00
13434;BME280;6789;47.678;9.158;2023-04-19T21:54:58;96722.94;;;6.30;100.00
13434;BME280;6789;47.678;9.158;2023-04-19T21:59:52;96735.19;;;6.29;100.00
13434;BME280;6789;47.678;9.158;2023-04-19T22:04:45;96739.78;;;6.27;100.00
13434;BME280;6789;47.678;9.158;2023-04-19T22:09:58;96740.75;;;6.33;100.00
13434;BME280;6789;47.678;9.158;2023-04-19T22:15:36;96721.78;;;6.45;100.00
13434;BME280;6789;47.678;9.158;2023-04-19T22:20:58;96709.75;;;6.44;100.00
13434;BME280;6789;47.678;9.158;2023-04-19T22:26:29;96700.94;;;6.58;100.00
13434;BME280;6789;47.678;9.158;2023-04-19T22:31:37;96695.72;;;6.51;100.00
13434;BME280;6789;47.678;9.158;2023-04-19T22:37:17;96689.31;;;6.47;100.00
13434;BME280;6789;47.678;9.158;2023-04-19T22:42:37;96690.31;;;6.53;100.00
13434;BME280;6789;47.678;9.158;2023-04-19T22:47:56;96692.72;;;6.61;100.00
13434;BME280;6789;47.678;9.158;2023-04-19T22:53:14;96674.91;;;6.71;100.00
13434;BME280;6789;47.678;9.158;2023-04-19T22:58:40;96662.44;;;6.73;100.00
13434;BME280;6789;47.678;9.158;2023-04-19T23:03:51;96655.66;;;6.59;100.00
13434;BME280;6789;47.678;9.158;2023-04-19T23:08:43;96655.03;;;6.70;100.00
13434;BME280;6789;47.678;9.158;2023-04-19T23:13:36;96656.47;;;6.53;100.00
13434;BME280;6789;47.678;9.158;2023-04-19T23:18:31;96638.22;;;6.53;100.00
13434;BME280;6789;47.678;9.158;2023-04-19T23:23:23;96640.03;;;6.59;100.00
13434;BME280;6789;47.678;9.158;2023-04-19T23:28:15;96626.63;;;6.42;100.00
13434;BME280;6789;47.678;9.158;2023-04-19T23:33:07;96629.81;;;6.38;100.00
13434;BME280;6789;47.678;9.158;2023-04-19T23:37:59;96616.78;;;6.51;100.00
13434;BME280;6789;47.678;9.158;2023-04-19T23:42:50;96614.41;;;6.49;100.00
13434;BME280;6789;47.678;9.158;2023-04-19T23:47:42;96609.19;;;6.49;100.00
13434;BME280;6789;47.678;9.158;2023-04-19T23:52:34;96597.56;;;6.52;100.00
13434;BME280;6789;47.678;9.158;2023-04-19T23:57:26;96590.34;;;6.54;100.00
